Orono, Minnesota
Current Conditions -  °F | °C
As of 10:53 AM on Wednesday 22 Oct 2014 (Local Time) from KFCM Reporting Station
Overcast Overcast  
Wind Chill: 50°   Ceiling: 5000
Heat Index: 50°   Visibility: 10mi
Dew Point: 40°   Wind: 16mph
Humidity: 68%   Direction: 150°SSE
Pressure: 30.16"   Gusts: 23mph
Location:  44.9534°N, 93.5762°W
Report Text: KFCM 221553Z 15014G20KT 10SM OVC050 10/04 A3016 RMK AO2 SLP219 T01000044
Loading
Personal Weather Stations






























Interactive Weather Map
Tropical Storm Tracking
New forecast layout! Learn more

10-Day Weather Forecast

Advertisements
Track Severe Weather on mobile